createdAt,value
2023-02-17T00:00:28.100Z,42.50
2023-02-17T00:02:57.336Z,42.25
2023-02-17T00:05:25.422Z,40.75
2023-02-17T00:07:55.245Z,35.00
2023-02-17T00:10:23.262Z,38.80
2023-02-17T00:12:51.264Z,39.00
2023-02-17T00:15:19.309Z,41.25
2023-02-17T00:17:47.294Z,40.20
2023-02-17T00:20:15.334Z,40.50
2023-02-17T00:22:43.338Z,36.00
2023-02-17T00:25:12.734Z,37.20
2023-02-17T00:27:40.736Z,37.00
2023-02-17T00:30:09.598Z,42.25
2023-02-17T00:32:37.792Z,39.75
2023-02-17T00:35:06.059Z,38.00
2023-02-17T00:37:36.005Z,39.75
2023-02-17T00:40:04.131Z,40.00
2023-02-17T00:42:35.991Z,41.00
2023-02-17T00:45:04.055Z,40.00
2023-02-17T00:47:33.419Z,41.75
2023-02-17T00:50:01.462Z,39.60
2023-02-17T00:52:29.478Z,42.25
2023-02-17T00:54:57.498Z,38.50
2023-02-17T00:57:26.390Z,41.00
2023-02-17T00:59:56.790Z,41.00
2023-02-17T01:02:24.818Z,40.00
2023-02-17T01:04:54.663Z,43.00
2023-02-17T01:07:22.725Z,42.00
2023-02-17T01:09:50.762Z,38.00
2023-02-17T01:12:18.764Z,41.00
2023-02-17T01:14:46.782Z,41.00
2023-02-17T01:17:16.132Z,37.60
2023-02-17T01:19:44.150Z,44.33
2023-02-17T01:22:12.164Z,44.50
2023-02-17T01:24:40.335Z,42.75
2023-02-17T01:27:08.327Z,40.25
2023-02-17T01:29:36.381Z,41.25
2023-02-17T01:32:05.006Z,40.00
2023-02-17T01:34:34.467Z,42.00
2023-02-17T01:37:02.467Z,39.80
2023-02-17T01:39:30.493Z,43.40
2023-02-17T01:41:58.501Z,41.40
2023-02-17T01:44:26.707Z,38.00
2023-02-17T01:46:55.264Z,41.75
2023-02-17T01:49:26.930Z,42.50
2023-02-17T01:51:58.277Z,39.60
2023-02-17T01:54:27.763Z,41.00
2023-02-17T01:56:55.779Z,40.00
2023-02-17T01:59:23.873Z,41.00
2023-02-17T02:01:53.622Z,43.00
2023-02-17T02:04:22.745Z,41.00
2023-02-17T02:06:50.743Z,40.60
2023-02-17T02:09:21.664Z,42.00
2023-02-17T02:11:50.602Z,42.60
2023-02-17T02:14:18.767Z,40.00
2023-02-17T02:16:49.839Z,43.50
2023-02-17T02:19:33.014Z,48.00
2023-02-17T02:22:25.572Z,42.00
2023-02-17T02:25:00.817Z,47.50
2023-02-17T02:27:47.804Z,40.20
2023-02-17T02:30:43.248Z,40.40
2023-02-17T02:33:16.356Z,44.50
2023-02-17T02:35:48.989Z,44.25
2023-02-17T02:38:18.871Z,45.25
2023-02-17T02:40:48.600Z,46.00
2023-02-17T02:43:16.683Z,46.25
2023-02-17T02:45:44.834Z,45.00
2023-02-17T02:48:14.297Z,45.75
2023-02-17T02:50:50.106Z,43.00
2023-02-17T02:53:47.566Z,44.60
2023-02-17T02:56:20.866Z,42.00
2023-02-17T02:58:50.717Z,43.00
2023-02-17T03:01:24.304Z,43.00
2023-02-17T03:03:56.738Z,43.80
2023-02-17T03:06:27.941Z,44.75
2023-02-17T03:08:57.587Z,45.00
2023-02-17T03:11:32.489Z,42.50
2023-02-17T03:14:03.598Z,44.50
2023-02-17T03:16:31.879Z,45.80
2023-02-17T03:19:01.286Z,43.80
2023-02-17T03:21:33.719Z,43.00
2023-02-17T03:24:01.750Z,44.20
2023-02-17T03:26:29.819Z,41.00
2023-02-17T03:28:58.126Z,41.00
2023-02-17T03:31:26.241Z,42.00
2023-02-17T03:33:54.376Z,41.40
2023-02-17T03:36:23.763Z,44.50
2023-02-17T03:38:52.127Z,45.00
2023-02-17T03:41:20.183Z,42.40
2023-02-17T03:43:48.199Z,44.60
2023-02-17T03:46:17.107Z,40.50
2023-02-17T03:48:45.157Z,41.00
2023-02-17T03:51:14.609Z,43.00
2023-02-17T03:53:44.110Z,46.50
2023-02-17T03:56:12.353Z,41.00
2023-02-17T03:58:40.460Z,41.00
2023-02-17T04:01:08.686Z,43.20
2023-02-17T04:03:36.858Z,44.25
2023-02-17T04:06:05.633Z,41.00
2023-02-17T04:08:33.844Z,43.00
2023-02-17T04:11:03.666Z,41.00
2023-02-17T04:13:31.765Z,38.80
2023-02-17T04:16:01.457Z,41.00
2023-02-17T04:18:29.534Z,39.20
2023-02-17T04:20:57.587Z,42.25
2023-02-17T04:23:25.611Z,40.80
2023-02-17T04:25:53.773Z,39.60
2023-02-17T04:28:23.280Z,38.50
2023-02-17T04:30:51.681Z,41.00
2023-02-17T04:33:19.872Z,38.00
2023-02-17T04:35:48.744Z,39.20
2023-02-17T04:38:16.854Z,40.25
2023-02-17T04:40:44.904Z,38.50
2023-02-17T04:43:12.923Z,37.00
2023-02-17T04:45:42.328Z,39.50
2023-02-17T04:48:10.381Z,39.60
2023-02-17T04:50:38.439Z,40.25
2023-02-17T04:53:06.466Z,42.40
2023-02-17T04:55:34.519Z,41.00
2023-02-17T04:58:02.537Z,37.25
2023-02-17T05:00:30.681Z,40.00
2023-02-17T05:03:00.056Z,39.67
2023-02-17T05:05:28.115Z,36.00
2023-02-17T05:07:56.137Z,37.00
2023-02-17T05:10:24.229Z,38.60
2023-02-17T05:12:52.383Z,36.60
2023-02-17T05:15:20.694Z,39.50
2023-02-17T05:17:48.714Z,37.20
2023-02-17T05:20:18.207Z,40.50
2023-02-17T05:22:46.231Z,33.00
2023-02-17T05:25:14.293Z,38.25
2023-02-17T05:27:42.319Z,35.00
2023-02-17T05:30:10.962Z,36.80
2023-02-17T05:32:39.029Z,38.50
2023-02-17T05:35:07.684Z,37.00
2023-02-17T05:37:37.075Z,34.00
2023-02-17T05:40:05.814Z,34.00
2023-02-17T05:42:33.830Z,37.20
2023-02-17T05:45:01.921Z,40.00
2023-02-17T05:47:30.368Z,40.00
2023-02-17T05:49:58.400Z,37.60
2023-02-17T05:52:26.460Z,43.00
2023-02-17T05:54:55.856Z,40.20
2023-02-17T05:57:23.902Z,40.00
2023-02-17T05:59:51.928Z,41.50
2023-02-17T06:02:19.974Z,41.00
2023-02-17T06:04:48.083Z,38.80
2023-02-17T06:07:16.155Z,38.20
2023-02-17T06:09:46.445Z,41.00
2023-02-17T06:12:16.539Z,40.50
2023-02-17T06:14:44.570Z,38.75
2023-02-17T06:17:12.633Z,41.00
2023-02-17T06:19:40.686Z,42.33
2023-02-17T06:22:09.891Z,39.20
2023-02-17T06:24:37.911Z,43.75
2023-02-17T06:27:05.954Z,43.00
2023-02-17T06:29:35.485Z,43.00
2023-02-17T06:32:03.706Z,44.20
2023-02-17T06:34:31.769Z,45.00
2023-02-17T06:36:59.835Z,39.00
2023-02-17T06:39:27.957Z,43.20
2023-02-17T06:41:56.084Z,43.00
2023-02-17T06:44:24.106Z,43.00
2023-02-17T06:46:53.516Z,38.60
2023-02-17T06:49:21.647Z,38.50
2023-02-17T06:51:49.700Z,37.75
2023-02-17T06:54:17.735Z,43.00
2023-02-17T06:56:45.788Z,40.40
2023-02-17T06:59:13.815Z,38.00
2023-02-17T07:01:41.903Z,36.50
2023-02-17T07:04:11.275Z,42.40
2023-02-17T07:06:39.356Z,38.50
2023-02-17T07:09:07.425Z,36.00
2023-02-17T07:11:35.506Z,37.20
2023-02-17T07:14:03.558Z,42.25
2023-02-17T07:16:31.801Z,39.00
2023-02-17T07:18:59.858Z,37.60
2023-02-17T07:21:29.329Z,37.75
2023-02-17T07:23:57.365Z,34.50
2023-02-17T07:26:25.436Z,41.80
2023-02-17T07:28:53.471Z,37.00
2023-02-17T07:31:21.608Z,40.00
2023-02-17T07:33:50.221Z,34.25
2023-02-17T07:36:18.451Z,39.00
2023-02-17T07:38:47.869Z,39.00
2023-02-17T07:41:16.857Z,37.00
2023-02-17T07:43:44.956Z,38.75
2023-02-17T07:46:13.133Z,37.50
2023-02-17T07:48:41.246Z,37.00
2023-02-17T07:51:10.298Z,38.75
2023-02-17T07:53:38.429Z,37.00
2023-02-17T07:56:09.043Z,37.40
2023-02-17T07:58:37.891Z,36.80
2023-02-17T08:01:07.763Z,37.25
2023-02-17T08:03:35.797Z,34.00
2023-02-17T08:06:04.174Z,36.25
2023-02-17T08:08:50.124Z,35.80
2023-02-17T08:11:37.131Z,42.80
2023-02-17T08:14:05.280Z,36.25
2023-02-17T08:16:33.409Z,49.75
2023-02-17T08:19:01.463Z,48.75
2023-02-17T08:21:29.587Z,109.00
2023-02-17T08:23:57.616Z,47.50
2023-02-17T08:26:27.059Z,43.00
2023-02-17T08:28:55.100Z,51.25
2023-02-17T08:31:24.113Z,41.20
2023-02-17T08:33:52.421Z,39.67
2023-02-17T08:36:22.300Z,39.80
2023-02-17T08:38:51.369Z,28.40
2023-02-17T08:41:21.290Z,34.50
2023-02-17T08:43:50.766Z,30.80
2023-02-17T08:46:19.301Z,31.20
2023-02-17T08:48:47.442Z,31.00
2023-02-17T08:51:16.024Z,27.50
2023-02-17T08:53:44.283Z,30.80
2023-02-17T08:56:12.455Z,32.60
2023-02-17T08:58:40.605Z,42.75
2023-02-17T09:01:10.055Z,45.20
2023-02-17T09:03:38.366Z,56.50
2023-02-17T09:06:07.463Z,44.25
2023-02-17T09:08:35.745Z,73.00
2023-02-17T09:11:03.885Z,42.60
2023-02-17T09:13:32.048Z,28.20
2023-02-17T09:16:00.216Z,31.00
2023-02-17T09:18:29.699Z,32.50
2023-02-17T09:20:58.560Z,36.00
2023-02-17T09:23:26.701Z,30.75
2023-02-17T09:26:02.657Z,38.00
2023-02-17T09:28:30.719Z,29.50
2023-02-17T09:30:58.830Z,41.50
2023-02-17T09:33:27.224Z,37.25
2023-02-17T09:35:56.766Z,41.00
2023-02-17T09:38:24.895Z,31.00
2023-02-17T09:40:52.931Z,37.00
2023-02-17T09:43:22.411Z,32.20
2023-02-17T09:45:52.048Z,38.50
2023-02-17T09:48:21.417Z,32.60
2023-02-17T09:50:52.213Z,33.00
2023-02-17T09:53:25.345Z,29.20
2023-02-17T09:55:54.249Z,31.50
2023-02-17T09:58:24.042Z,21.00
2023-02-17T10:00:54.598Z,23.00
2023-02-17T10:03:26.141Z,24.40
2023-02-17T10:05:56.943Z,35.75
2023-02-17T10:08:28.140Z,26.75
2023-02-17T10:10:59.043Z,28.40
2023-02-17T10:13:27.242Z,28.75
2023-02-17T10:15:55.334Z,31.00
2023-02-17T10:18:27.981Z,23.00
2023-02-17T10:20:58.606Z,29.80
2023-02-17T10:23:28.750Z,21.40
2023-02-17T10:26:08.476Z,23.00
2023-02-17T10:28:43.442Z,31.00
2023-02-17T10:31:12.979Z,22.50
2023-02-17T10:33:47.001Z,26.00
2023-02-17T10:36:20.368Z,22.50
2023-02-17T10:38:52.208Z,23.00
2023-02-17T10:41:22.652Z,25.50
2023-02-17T10:43:50.764Z,24.00
2023-02-17T10:46:20.447Z,20.40
2023-02-17T10:48:49.434Z,28.40
2023-02-17T10:51:18.842Z,28.00
2023-02-17T10:53:48.520Z,25.40
2023-02-17T10:56:18.747Z,24.20
2023-02-17T10:58:51.525Z,30.20
2023-02-17T11:01:19.619Z,35.00
2023-02-17T11:03:47.728Z,33.00
2023-02-17T11:06:18.171Z,23.40
2023-02-17T11:08:47.351Z,25.50
2023-02-17T11:11:18.427Z,25.75
2023-02-17T11:13:56.694Z,28.00
2023-02-17T11:16:27.455Z,26.67
2023-02-17T11:18:55.587Z,31.75
2023-02-17T11:21:23.746Z,33.80
2023-02-17T11:23:53.727Z,33.00
2023-02-17T11:26:25.484Z,33.75
2023-02-17T11:28:53.553Z,34.75
2023-02-17T11:31:25.824Z,31.00
2023-02-17T11:33:55.899Z,30.50
2023-02-17T11:36:26.329Z,33.00
2023-02-17T11:38:54.407Z,26.00
2023-02-17T11:41:24.152Z,42.80
2023-02-17T11:43:53.258Z,30.25
2023-02-17T11:46:31.614Z,27.25
2023-02-17T11:49:05.089Z,33.25
2023-02-17T11:51:38.913Z,24.20
2023-02-17T11:54:12.680Z,33.60
2023-02-17T11:56:43.171Z,49.50
2023-02-17T11:59:28.511Z,32.50
2023-02-17T12:02:05.394Z,27.00
2023-02-17T12:04:33.575Z,32.60
2023-02-17T12:07:15.255Z,25.50
2023-02-17T12:09:47.912Z,27.75
2023-02-17T12:12:21.506Z,24.75
2023-02-17T12:14:59.630Z,23.00
2023-02-17T12:17:31.549Z,29.40
2023-02-17T12:20:04.544Z,29.00
2023-02-17T12:22:36.894Z,25.60
2023-02-17T12:25:21.161Z,25.00
2023-02-17T12:27:57.956Z,24.50
2023-02-17T12:30:32.911Z,26.00
2023-02-17T12:33:15.151Z,26.20
2023-02-17T12:35:45.878Z,28.00
2023-02-17T12:38:16.630Z,33.00
2023-02-17T12:40:46.631Z,49.50
2023-02-17T12:43:21.523Z,39.40
2023-02-17T12:45:49.767Z,38.00
2023-02-17T12:48:21.047Z,25.60
2023-02-17T12:50:53.479Z,32.60
2023-02-17T12:53:25.221Z,23.75
2023-02-17T12:55:54.448Z,25.75
2023-02-17T12:58:24.987Z,23.20
2023-02-17T13:00:55.671Z,26.00
2023-02-17T13:03:23.802Z,24.00
2023-02-17T13:05:56.091Z,26.60
2023-02-17T13:08:25.568Z,28.00
2023-02-17T13:11:01.609Z,29.25
2023-02-17T13:13:31.658Z,21.75
2023-02-17T13:16:03.904Z,26.00
2023-02-17T13:18:32.880Z,28.00
2023-02-17T13:21:01.576Z,24.00
2023-02-17T13:23:38.602Z,26.50
2023-02-17T13:26:28.294Z,23.00
2023-02-17T13:29:13.211Z,26.40
2023-02-17T13:31:52.679Z,24.60
2023-02-17T13:34:32.795Z,24.75
2023-02-17T13:37:03.334Z,24.00
2023-02-17T13:39:33.893Z,24.40
2023-02-17T13:42:02.661Z,21.80
2023-02-17T13:44:32.874Z,22.20
2023-02-17T13:47:02.165Z,21.67
2023-02-17T13:49:33.137Z,24.50
2023-02-17T13:52:18.426Z,20.00
2023-02-17T13:54:53.875Z,22.00
2023-02-17T13:57:26.322Z,20.00
2023-02-17T14:00:06.237Z,18.60
2023-02-17T14:02:40.009Z,19.00
2023-02-17T14:05:16.121Z,16.00
2023-02-17T14:07:47.527Z,20.00
2023-02-17T14:10:20.368Z,18.00
2023-02-17T14:12:49.331Z,18.20
2023-02-17T14:15:20.168Z,22.00
2023-02-17T14:17:48.226Z,17.00
2023-02-17T14:20:30.583Z,24.50
2023-02-17T14:23:06.346Z,16.00
2023-02-17T14:25:35.716Z,20.20
2023-02-17T14:28:03.858Z,17.75
2023-02-17T14:30:34.794Z,20.00
2023-02-17T14:33:04.802Z,24.40
2023-02-17T14:35:34.420Z,21.80
2023-02-17T14:38:10.846Z,20.60
2023-02-17T14:40:40.266Z,18.75
2023-02-17T14:43:08.483Z,19.00
2023-02-17T14:45:37.848Z,17.00
2023-02-17T14:48:06.131Z,15.00
2023-02-17T14:50:34.176Z,27.50
2023-02-17T14:53:02.263Z,16.00
2023-02-17T14:55:33.753Z,18.00
2023-02-17T14:58:01.846Z,20.00
2023-02-17T15:00:29.883Z,16.60
2023-02-17T15:02:59.323Z,15.50
2023-02-17T15:05:27.444Z,17.75
2023-02-17T15:07:55.510Z,12.60
2023-02-17T15:10:26.068Z,12.00
2023-02-17T15:12:54.189Z,22.00
2023-02-17T15:15:22.236Z,16.50
2023-02-17T15:17:50.377Z,11.40
2023-02-17T15:20:19.929Z,12.75
2023-02-17T15:22:52.793Z,15.00
2023-02-17T15:25:22.328Z,16.80
2023-02-17T15:27:50.846Z,15.00
2023-02-17T15:30:19.622Z,14.00
2023-02-17T15:32:47.702Z,14.50
2023-02-17T15:35:20.924Z,9.40
2023-02-17T15:37:49.042Z,9.80
2023-02-17T15:40:17.946Z,25.80
2023-02-17T15:42:46.224Z,14.00
2023-02-17T15:45:15.733Z,8.00
2023-02-17T15:47:43.775Z,22.00
2023-02-17T15:50:18.616Z,11.00
2023-02-17T15:52:49.663Z,20.20
2023-02-17T15:55:18.191Z,8.00
2023-02-17T15:57:48.920Z,7.00
2023-02-17T16:00:21.734Z,8.00
2023-02-17T16:02:49.802Z,7.50
2023-02-17T16:05:19.002Z,7.50
2023-02-17T16:07:47.156Z,8.00
2023-02-17T16:10:17.646Z,6.00
2023-02-17T16:12:45.952Z,6.50
2023-02-17T16:15:15.487Z,8.50
2023-02-17T16:17:43.533Z,6.20
2023-02-17T16:20:15.978Z,5.00
2023-02-17T16:22:44.845Z,6.00
2023-02-17T16:25:12.973Z,6.80
2023-02-17T16:27:42.479Z,5.80
2023-02-17T16:30:21.427Z,4.00
2023-02-17T16:32:49.659Z,5.00
2023-02-17T16:35:18.032Z,4.60
2023-02-17T16:37:50.555Z,3.00
2023-02-17T16:40:19.141Z,4.00
2023-02-17T16:42:48.538Z,3.00
2023-02-17T16:45:17.760Z,3.00
2023-02-17T16:47:47.278Z,4.60
2023-02-17T16:50:19.808Z,3.00
2023-02-17T16:52:47.843Z,2.00
2023-02-17T16:55:17.731Z,2.25
2023-02-17T16:57:45.902Z,4.00
2023-02-17T17:00:17.625Z,4.00
2023-02-17T17:02:46.016Z,3.75
2023-02-17T17:05:14.327Z,3.25
2023-02-17T17:07:42.690Z,5.00
2023-02-17T17:10:17.014Z,4.40
2023-02-17T17:12:45.475Z,3.00
2023-02-17T17:15:14.928Z,2.40
2023-02-17T17:17:44.182Z,1.00
2023-02-17T17:20:15.061Z,2.00
2023-02-17T17:22:43.116Z,1.00
2023-02-17T17:25:11.193Z,3.00
2023-02-17T17:27:39.245Z,2.00
2023-02-17T17:30:08.450Z,1.20
2023-02-17T17:32:37.853Z,2.00
2023-02-17T17:35:06.432Z,1.20
2023-02-17T17:37:34.471Z,2.20
2023-02-17T17:40:02.543Z,1.80
2023-02-17T17:42:30.579Z,1.80
2023-02-17T17:44:58.651Z,2.00
2023-02-17T17:47:30.167Z,1.60
2023-02-17T17:49:59.933Z,2.00
2023-02-17T17:52:27.996Z,1.60
2023-02-17T17:54:56.055Z,1.00
2023-02-17T17:57:24.071Z,1.75
2023-02-17T17:59:52.124Z,4.00
2023-02-17T18:02:20.154Z,2.00
2023-02-17T18:04:48.595Z,2.60
2023-02-17T18:07:17.999Z,3.00
2023-02-17T18:09:46.055Z,3.00
2023-02-17T18:12:15.430Z,2.80
2023-02-17T18:14:43.471Z,1.00
2023-02-17T18:17:12.539Z,1.60
2023-02-17T18:19:40.618Z,1.00
2023-02-17T18:22:08.648Z,1.00
2023-02-17T18:24:38.063Z,2.00
2023-02-17T18:27:06.151Z,2.20
2023-02-17T18:29:34.192Z,1.80
2023-02-17T18:32:02.268Z,2.00
2023-02-17T18:34:30.399Z,2.00
2023-02-17T18:36:59.527Z,2.25
2023-02-17T18:39:27.631Z,2.40
2023-02-17T18:41:57.152Z,2.00
2023-02-17T18:44:25.219Z,3.00
2023-02-17T18:46:53.246Z,3.00
2023-02-17T18:49:21.291Z,3.40
2023-02-17T18:51:49.302Z,3.00
2023-02-17T18:54:17.350Z,2.00
2023-02-17T18:56:45.371Z,2.00
2023-02-17T18:59:14.771Z,3.00
2023-02-17T19:01:43.394Z,2.00
2023-02-17T19:04:12.046Z,3.00
2023-02-17T19:06:41.239Z,3.00
2023-02-17T19:09:09.591Z,3.00
2023-02-17T19:11:37.607Z,2.00
2023-02-17T19:14:05.726Z,3.00
2023-02-17T19:16:35.157Z,3.00
2023-02-17T19:19:03.331Z,10.00
2023-02-17T19:21:31.502Z,4.00
2023-02-17T19:23:59.525Z,3.25
2023-02-17T19:26:27.560Z,3.00
2023-02-17T19:28:55.593Z,1.00
2023-02-17T19:31:24.249Z,3.00
2023-02-17T19:33:53.678Z,3.00
2023-02-17T19:36:22.724Z,2.25
2023-02-17T19:38:51.078Z,3.00
2023-02-17T19:41:19.689Z,4.75
2023-02-17T19:43:47.719Z,2.40
2023-02-17T19:46:16.295Z,2.00
2023-02-17T19:48:44.335Z,1.00
2023-02-17T19:51:14.052Z,2.40
2023-02-17T19:53:43.064Z,1.00
2023-02-17T19:56:12.528Z,1.40
2023-02-17T19:58:40.830Z,2.00
2023-02-17T20:01:09.546Z,1.00
2023-02-17T20:03:37.665Z,1.50
2023-02-17T20:06:07.644Z,2.50
2023-02-17T20:08:37.274Z,3.00
2023-02-17T20:11:07.894Z,3.00
2023-02-17T20:13:45.250Z,2.00
2023-02-17T20:16:14.989Z,3.50
2023-02-17T20:18:44.711Z,2.00
2023-02-17T20:21:13.815Z,3.00
2023-02-17T20:23:43.251Z,2.00
2023-02-17T20:26:12.275Z,4.00
2023-02-17T20:28:40.565Z,3.00
2023-02-17T20:31:08.895Z,2.00
2023-02-17T20:33:36.989Z,3.00
2023-02-17T20:36:05.742Z,1.00
2023-02-17T20:38:34.000Z,1.00
2023-02-17T20:41:03.987Z,2.00
2023-02-17T20:43:32.112Z,3.00
2023-02-17T20:46:00.431Z,2.00
2023-02-17T20:48:28.608Z,4.20
2023-02-17T20:50:56.749Z,3.00
2023-02-17T20:53:24.835Z,1.80
2023-02-17T20:55:52.994Z,4.50
2023-02-17T20:58:22.613Z,2.00
2023-02-17T21:00:50.902Z,1.00
2023-02-17T21:03:19.063Z,1.00
2023-02-17T21:05:47.169Z,1.00
2023-02-17T21:08:15.182Z,4.00
2023-02-17T21:10:43.234Z,2.20
2023-02-17T21:13:11.262Z,2.67
2023-02-17T21:15:40.664Z,2.00
2023-02-17T21:18:08.973Z,3.00
2023-02-17T21:20:37.286Z,3.00
2023-02-17T21:23:05.439Z,3.00
2023-02-17T21:25:33.709Z,3.00
2023-02-17T21:28:01.733Z,1.20
2023-02-17T21:30:29.900Z,2.00
2023-02-17T21:32:59.528Z,2.00
2023-02-17T21:35:27.653Z,2.00
2023-02-17T21:37:55.856Z,4.50
2023-02-17T21:40:23.916Z,4.00
2023-02-17T21:43:09.199Z,3.00
2023-02-17T21:45:38.566Z,3.00
2023-02-17T21:48:08.075Z,3.00
2023-02-17T21:50:36.125Z,2.00
2023-02-17T21:53:04.170Z,4.00
2023-02-17T21:55:32.860Z,2.33
2023-02-17T21:58:00.887Z,0.60
2023-02-17T22:00:28.964Z,2.00
2023-02-17T22:02:56.976Z,3.00
2023-02-17T22:05:26.402Z,4.00
2023-02-17T22:07:54.419Z,1.00
2023-02-17T22:10:22.462Z,1.00
2023-02-17T22:12:52.619Z,2.00
2023-02-17T22:15:20.984Z,2.00
2023-02-17T22:17:49.069Z,3.00
2023-02-17T22:20:17.295Z,2.00
2023-02-17T22:22:46.667Z,1.00
2023-02-17T22:25:14.739Z,3.00
2023-02-17T22:27:42.769Z,0.00
2023-02-17T22:30:11.268Z,2.00
2023-02-17T22:32:40.449Z,2.00
2023-02-17T22:35:08.685Z,3.00
2023-02-17T22:37:37.036Z,2.00
2023-02-17T22:40:08.396Z,3.00
2023-02-17T22:42:36.430Z,2.20
2023-02-17T22:45:04.653Z,1.20
2023-02-17T22:47:32.681Z,2.80
2023-02-17T22:50:00.707Z,3.00
2023-02-17T22:52:28.757Z,1.50
2023-02-17T22:54:56.904Z,8.00
2023-02-17T22:57:26.385Z,3.00
2023-02-17T22:59:54.454Z,3.00
2023-02-17T23:02:22.543Z,3.00
2023-02-17T23:04:50.810Z,2.00
2023-02-17T23:07:19.387Z,3.50
2023-02-17T23:09:47.563Z,2.40
2023-02-17T23:12:15.626Z,2.00
2023-02-17T23:14:46.260Z,2.00
2023-02-17T23:17:14.626Z,2.00
2023-02-17T23:19:42.846Z,0.60
2023-02-17T23:22:14.431Z,2.40
2023-02-17T23:24:42.540Z,2.00
2023-02-17T23:27:10.591Z,2.00
2023-02-17T23:29:40.627Z,3.00
2023-02-17T23:32:10.029Z,2.00
2023-02-17T23:34:38.081Z,3.00
2023-02-17T23:37:06.136Z,2.00
2023-02-17T23:39:34.156Z,2.00
2023-02-17T23:42:02.218Z,1.75
2023-02-17T23:44:30.262Z,1.00
2023-02-17T23:46:58.316Z,2.75
2023-02-17T23:49:27.685Z,1.00
2023-02-17T23:51:55.738Z,3.00
2023-02-17T23:54:25.040Z,0.60
2023-02-17T23:56:53.086Z,1.00
2023-02-17T23:59:21.150Z,2.50
